Time;durP1;ratioP1;P1;durP2;ratioP2;P2;SDS_P1;SDS_P2;PMS_P1;PMS_P2;Temp;Humidity;BMP_temperature;BMP_pressure;BME280_temperature;BME280_humidity;BME280_pressure;Samples;Min_cycle;Max_cycle;Signal;HPM_P1;HPM_P2
2022/07/06 00:02:03;;;;;;;4.18;1.77;;;17.40;99.90;;;;;;5043365;28;20227;-41
2022/07/06 00:04:29;;;;;;;1.87;1.77;;;17.30;99.90;;;;;;5033455;28;20212;-41
2022/07/06 00:06:55;;;;;;;2.23;1.70;;;17.20;99.90;;;;;;5051758;28;20186;-40
2022/07/06 00:09:21;;;;;;;3.10;1.90;;;17.20;99.90;;;;;;5031844;28;20194;-41
2022/07/06 00:11:47;;;;;;;3.90;2.07;;;17.10;99.90;;;;;;5030872;28;20194;-39
2022/07/06 00:14:12;;;;;;;2.07;1.90;;;16.90;99.90;;;;;;5033690;28;20197;-41
2022/07/06 00:16:38;;;;;;;2.87;1.90;;;16.80;99.90;;;;;;5038989;28;20182;-40
2022/07/06 00:19:04;;;;;;;2.10;1.80;;;16.80;99.90;;;;;;5051074;28;20209;-40
2022/07/06 00:21:30;;;;;;;3.23;1.90;;;16.80;99.90;;;;;;5040398;28;20189;-40
2022/07/06 00:23:56;;;;;;;2.97;1.97;;;16.80;99.90;;;;;;5038116;28;20348;-40
2022/07/06 00:26:21;;;;;;;2.93;1.87;;;16.80;99.90;;;;;;5035539;28;20194;-41
2022/07/06 00:28:47;;;;;;;2.37;2.00;;;16.80;99.90;;;;;;5053650;28;20189;-41
2022/07/06 00:31:13;;;;;;;2.30;1.90;;;16.90;99.90;;;;;;5033404;28;20189;-41
2022/07/06 00:33:39;;;;;;;3.17;1.90;;;16.80;99.90;;;;;;5044315;28;20235;-39
2022/07/06 00:36:05;;;;;;;2.33;1.90;;;16.90;99.90;;;;;;5046988;28;20180;-40
2022/07/06 00:38:31;;;;;;;1.90;1.80;;;16.90;99.90;;;;;;5031236;28;20186;-39
2022/07/06 00:40:57;;;;;;;2.63;1.97;;;16.90;99.90;;;;;;5033273;28;20177;-38
2022/07/06 00:43:23;;;;;;;4.37;2.30;;;16.90;99.90;;;;;;5032029;28;20220;-40
2022/07/06 00:45:49;;;;;;;3.33;1.80;;;16.80;99.90;;;;;;5033264;28;20221;-41
2022/07/06 00:48:16;;;;;;;2.83;2.00;;;16.80;99.90;;;;;;5048622;28;20179;-41
2022/07/06 00:50:42;;;;;;;2.27;2.07;;;16.90;99.90;;;;;;5037576;28;20185;-40
2022/07/06 00:53:08;;;;;;;3.70;2.20;;;16.90;99.90;;;;;;5042303;28;20182;-41
2022/07/06 00:55:39;;;;;;;2.77;2.20;;;17.00;99.90;;;;;;5029013;28;20710;-40
2022/07/06 00:58:06;;;;;;;2.47;2.27;;;17.00;99.90;;;;;;5018397;28;20179;-40
2022/07/06 01:00:33;;;;;;;3.53;2.30;;;17.00;99.90;;;;;;5029723;28;20207;-39
2022/07/06 01:02:59;;;;;;;2.87;2.20;;;17.00;99.90;;;;;;5061890;28;20175;-40
2022/07/06 01:05:26;;;;;;;3.87;2.33;;;16.90;99.90;;;;;;5029387;28;20214;-40
2022/07/06 01:07:53;;;;;;;3.17;2.07;;;16.80;99.90;;;;;;5045631;28;20208;-40
2022/07/06 01:10:21;;;;;;;3.57;2.70;;;16.70;99.90;;;;;;5035793;28;20178;-40
2022/07/06 01:12:48;;;;;;;2.50;2.30;;;16.60;99.90;;;;;;5036044;28;20178;-40
2022/07/06 01:15:25;;;;;;;2.80;2.20;;;16.40;99.90;;;;;;5037207;28;20214;-39
2022/07/06 01:17:52;;;;;;;2.67;2.47;;;16.30;99.90;;;;;;5043697;28;20186;-40
2022/07/06 01:20:24;;;;;;;4.53;2.60;;;16.20;99.90;;;;;;5032384;28;20186;-39
2022/07/06 01:22:51;;;;;;;6.20;2.73;;;16.10;99.90;;;;;;5051837;28;20186;-38
2022/07/06 01:25:18;;;;;;;3.30;2.43;;;16.10;99.90;;;;;;5036813;28;20209;-41
2022/07/06 01:27:45;;;;;;;2.50;2.30;;;16.00;99.90;;;;;;5032328;28;20204;-40
2022/07/06 01:30:13;;;;;;;2.70;2.17;;;16.00;99.90;;;;;;5019663;28;20177;-38
2022/07/06 01:32:40;;;;;;;2.50;1.97;;;16.00;99.90;;;;;;5037931;28;20178;-41
2022/07/06 01:35:07;;;;;;;2.83;2.03;;;16.10;99.90;;;;;;5058560;28;20232;-41
2022/07/06 01:37:34;;;;;;;2.40;2.20;;;16.10;99.90;;;;;;5051337;28;20210;-41
2022/07/06 01:40:00;;;;;;;4.20;2.47;;;16.20;99.90;;;;;;5056506;28;20182;-37
2022/07/06 01:42:27;;;;;;;3.87;2.30;;;16.20;99.90;;;;;;5058880;28;20229;-40
2022/07/06 01:44:54;;;;;;;3.43;2.03;;;16.20;99.90;;;;;;5038803;28;20214;-38
2022/07/06 01:47:20;;;;;;;2.50;2.30;;;16.20;99.90;;;;;;5044604;28;20256;-40
2022/07/06 01:49:48;;;;;;;2.43;2.20;;;16.20;99.90;;;;;;5042348;28;20178;-40
2022/07/06 01:52:14;;;;;;;3.53;2.30;;;16.10;99.90;;;;;;5055956;28;20201;-40
2022/07/06 01:54:40;;;;;;;2.90;2.60;;;16.10;99.90;;;;;;5020601;28;20210;-41
2022/07/06 01:57:07;;;;;;;3.47;2.67;;;16.00;99.90;;;;;;5049364;28;20201;-41
2022/07/06 01:59:32;;;;;;;3.17;2.80;;;16.00;99.90;;;;;;5036326;28;20178;-38
2022/07/06 02:01:58;;;;;;;4.10;2.57;;;16.00;99.90;;;;;;5040246;28;20185;-40
2022/07/06 02:04:24;;;;;;;2.97;2.63;;;16.00;99.90;;;;;;5036724;28;20252;-40
2022/07/06 02:06:51;;;;;;;3.53;2.40;;;15.90;99.90;;;;;;5040809;28;20185;-40
2022/07/06 02:09:17;;;;;;;3.50;2.40;;;15.90;99.90;;;;;;5039321;28;20269;-39
2022/07/06 02:11:43;;;;;;;4.20;3.00;;;15.90;99.90;;;;;;5041635;28;20273;-41
2022/07/06 02:14:09;;;;;;;3.37;2.50;;;15.90;99.90;;;;;;5054280;28;20623;-38
2022/07/06 02:16:38;;;;;;;3.87;2.47;;;15.90;99.90;;;;;;5058777;28;20178;-38
2022/07/06 02:19:04;;;;;;;4.23;2.70;;;15.80;99.90;;;;;;5037030;28;20210;-41
2022/07/06 02:21:30;;;;;;;2.53;2.33;;;15.80;99.90;;;;;;5055297;28;20181;-40
2022/07/06 02:23:55;;;;;;;3.20;2.50;;;15.80;99.90;;;;;;5040963;28;20248;-41
2022/07/06 02:26:22;;;;;;;4.03;2.70;;;15.80;99.90;;;;;;5027701;28;20190;-40
2022/07/06 02:28:49;;;;;;;2.83;2.27;;;15.80;99.90;;;;;;5035925;28;20265;-40
2022/07/06 02:31:15;;;;;;;3.67;2.50;;;15.70;99.90;;;;;;5042167;28;20357;-40
2022/07/06 02:33:43;;;;;;;3.27;2.50;;;15.70;99.90;;;;;;5048500;28;20212;-36
2022/07/06 02:36:10;;;;;;;3.17;2.70;;;15.60;99.90;;;;;;5032453;28;20267;-40
2022/07/06 02:38:36;;;;;;;3.53;2.90;;;15.60;99.90;;;;;;5062044;28;20282;-39
2022/07/06 02:41:02;;;;;;;4.43;2.93;;;15.50;99.90;;;;;;5047518;28;20186;-38
2022/07/06 02:43:28;;;;;;;5.70;3.30;;;15.40;99.90;;;;;;5048482;28;20216;-39
2022/07/06 02:45:54;;;;;;;2.57;2.37;;;15.40;99.90;;;;;;5040814;28;20317;-41
2022/07/06 02:48:21;;;;;;;3.10;2.80;;;15.40;99.90;;;;;;5054041;28;20715;-39
2022/07/06 02:50:49;;;;;;;7.77;3.27;;;15.40;99.90;;;;;;5040374;28;20174;-40
2022/07/06 02:53:17;;;;;;;5.23;2.77;;;15.30;99.90;;;;;;5051792;28;20288;-37
2022/07/06 02:55:42;;;;;;;2.93;2.73;;;15.30;99.90;;;;;;5039607;28;20205;-39
2022/07/06 02:58:08;;;;;;;3.73;2.90;;;15.30;99.90;;;;;;5018384;28;20190;-40
2022/07/06 03:00:34;;;;;;;3.50;2.83;;;15.30;99.90;;;;;;5040537;28;20265;-38
2022/07/06 03:03:00;;;;;;;4.27;3.40;;;15.20;99.90;;;;;;5056253;28;20251;-39
2022/07/06 03:05:26;;;;;;;4.23;2.93;;;15.20;99.90;;;;;;5058335;28;20206;-40
2022/07/06 03:07:53;;;;;;;3.07;2.77;;;15.20;99.90;;;;;;5018542;28;20183;-41
2022/07/06 03:10:19;;;;;;;3.37;2.97;;;15.10;99.90;;;;;;5046497;28;20178;-39
2022/07/06 03:12:45;;;;;;;3.47;2.80;;;15.20;99.90;;;;;;5053100;28;20205;-38
2022/07/06 03:15:12;;;;;;;3.43;3.13;;;15.10;99.90;;;;;;5048988;28;20194;-40
2022/07/06 03:17:40;;;;;;;4.00;3.50;;;15.20;99.90;;;;;;5051547;28;20181;-40
2022/07/06 03:20:08;;;;;;;4.20;2.90;;;15.20;99.90;;;;;;5054948;28;20546;-37
2022/07/06 03:22:35;;;;;;;3.63;3.33;;;15.20;99.90;;;;;;5035218;28;20202;-40
2022/07/06 03:25:01;;;;;;;5.47;3.13;;;15.20;99.90;;;;;;5054685;28;20282;-38
2022/07/06 03:27:28;;;;;;;2.93;2.67;;;15.20;99.90;;;;;;5035609;28;20218;-39
2022/07/06 03:29:54;;;;;;;3.63;3.07;;;15.20;99.90;;;;;;5062952;28;20220;-37
2022/07/06 03:32:20;;;;;;;3.33;2.97;;;15.10;99.90;;;;;;5036605;28;20188;-37
2022/07/06 03:34:47;;;;;;;4.13;3.10;;;15.10;99.90;;;;;;5036641;28;20209;-40
2022/07/06 03:37:13;;;;;;;3.43;3.07;;;15.00;99.90;;;;;;5015364;28;20186;-40
2022/07/06 03:39:40;;;;;;;3.43;2.97;;;15.00;99.90;;;;;;5045511;28;20202;-37
2022/07/06 03:42:07;;;;;;;4.47;3.60;;;14.90;99.90;;;;;;5024583;28;20182;-40
2022/07/06 03:44:33;;;;;;;3.40;3.00;;;14.80;99.90;;;;;;5017683;28;20229;-37
2022/07/06 03:47:01;;;;;;;3.40;3.10;;;14.80;99.90;;;;;;5040069;28;20198;-39
2022/07/06 03:49:27;;;;;;;6.60;3.33;;;14.80;99.90;;;;;;5052173;28;20247;-37
2022/07/06 03:51:55;;;;;;;3.17;2.73;;;14.80;99.90;;;;;;5042812;28;20193;-40
2022/07/06 03:54:22;;;;;;;5.67;3.13;;;14.80;99.90;;;;;;5039398;28;20248;-40
2022/07/06 03:56:49;;;;;;;4.67;3.37;;;14.80;99.90;;;;;;5050581;28;20194;-38
2022/07/06 03:59:16;;;;;;;3.83;3.23;;;14.80;99.90;;;;;;5041927;28;20190;-38
2022/07/06 04:01:42;;;;;;;8.43;3.10;;;14.90;99.90;;;;;;5052846;28;20209;-36
2022/07/06 04:04:12;;;;;;;4.03;2.90;;;14.90;99.90;;;;;;5036677;28;20297;-38
2022/07/06 04:06:43;;;;;;;4.67;3.20;;;14.90;99.90;;;;;;5033084;28;20185;-38
2022/07/06 04:09:10;;;;;;;3.47;3.13;;;14.90;99.90;;;;;;5019859;28;20185;-40
2022/07/06 04:11:36;;;;;;;4.97;3.17;;;14.90;99.90;;;;;;5039821;28;20197;-39
2022/07/06 04:14:04;;;;;;;5.00;2.90;;;14.90;99.90;;;;;;5049792;28;20202;-39
2022/07/06 04:16:30;;;;;;;3.13;2.83;;;14.90;99.90;;;;;;5039074;28;20241;-40
2022/07/06 04:18:57;;;;;;;4.50;2.80;;;14.90;99.90;;;;;;5030205;28;20192;-40
2022/07/06 04:21:24;;;;;;;4.63;3.10;;;14.90;99.90;;;;;;5042928;28;20215;-40
2022/07/06 04:23:52;;;;;;;4.37;3.47;;;15.00;99.90;;;;;;5040465;28;20210;-39
2022/07/06 04:26:19;;;;;;;3.33;3.00;;;15.00;99.90;;;;;;5062011;28;20213;-40
2022/07/06 04:28:46;;;;;;;3.13;2.87;;;15.00;99.90;;;;;;5058968;28;20212;-37
2022/07/06 04:31:15;;;;;;;4.40;2.60;;;15.00;99.90;;;;;;5052289;28;20197;-35
2022/07/06 04:33:43;;;;;;;4.63;3.30;;;15.00;99.90;;;;;;5027907;28;20186;-40
2022/07/06 04:36:10;;;;;;;3.40;2.90;;;15.00;99.90;;;;;;5034135;28;20240;-40
2022/07/06 04:38:41;;;;;;;3.03;2.77;;;15.00;99.90;;;;;;5042192;28;20264;-37
2022/07/06 04:41:09;;;;;;;3.13;2.87;;;15.00;99.90;;;;;;5050760;28;20178;-39
2022/07/06 04:43:35;;;;;;;3.77;3.37;;;15.10;99.90;;;;;;5038409;28;20263;-38
2022/07/06 04:46:01;;;;;;;3.30;3.00;;;15.10;99.90;;;;;;5039502;28;20181;-34
2022/07/06 04:48:29;;;;;;;4.13;3.20;;;15.10;99.90;;;;;;5057911;28;20190;-35
2022/07/06 04:50:55;;;;;;;5.33;3.50;;;15.20;99.90;;;;;;5032657;28;20189;-40
2022/07/06 04:53:26;;;;;;;3.30;3.07;;;15.20;99.90;;;;;;5032878;28;20177;-40
2022/07/06 04:55:52;;;;;;;4.23;3.17;;;15.20;99.90;;;;;;5036624;28;20194;-38
2022/07/06 04:58:19;;;;;;;4.50;3.30;;;15.20;99.90;;;;;;5042223;28;20197;-37
2022/07/06 05:00:46;;;;;;;3.33;2.97;;;15.20;99.90;;;;;;5026844;28;20588;-38
2022/07/06 05:03:11;;;;;;;2.93;2.60;;;15.20;99.90;;;;;;5047072;28;20214;-40
2022/07/06 05:05:38;;;;;;;3.30;3.00;;;15.30;99.90;;;;;;5021552;28;20217;-40
2022/07/06 05:08:04;;;;;;;6.77;3.70;;;15.30;99.90;;;;;;5033505;28;20197;-36
2022/07/06 05:10:31;;;;;;;6.03;3.50;;;15.40;99.90;;;;;;5029661;28;20190;-35
2022/07/06 05:12:57;;;;;;;5.03;3.10;;;15.50;99.90;;;;;;5032791;28;20182;-40
2022/07/06 05:15:25;;;;;;;4.07;3.17;;;15.60;99.90;;;;;;5019046;28;21708;-37
2022/07/06 05:17:51;;;;;;;4.70;3.20;;;15.70;99.90;;;;;;5052876;28;20264;-38
2022/07/06 05:20:18;;;;;;;4.47;3.17;;;15.70;99.90;;;;;;5031373;28;20256;-38
2022/07/06 05:22:46;;;;;;;4.33;3.20;;;15.70;99.90;;;;;;5027431;28;20277;-38
2022/07/06 05:25:13;;;;;;;5.93;3.40;;;15.80;99.90;;;;;;5038618;28;20209;-36
2022/07/06 05:27:40;;;;;;;4.30;3.10;;;15.90;99.90;;;;;;5037393;28;20253;-35
2022/07/06 05:30:08;;;;;;;3.63;3.10;;;15.90;99.90;;;;;;5033022;28;20170;-32
2022/07/06 05:32:34;;;;;;;4.70;3.33;;;16.10;99.90;;;;;;5054969;28;20185;-35
2022/07/06 05:35:01;;;;;;;4.80;3.30;;;16.20;99.90;;;;;;5033630;28;20206;-31
2022/07/06 05:37:28;;;;;;;3.93;3.23;;;16.30;99.90;;;;;;5047625;28;20188;-33
2022/07/06 05:39:54;;;;;;;3.57;3.27;;;16.40;99.90;;;;;;5068521;28;20193;-36
2022/07/06 05:42:20;;;;;;;3.50;3.20;;;16.50;99.90;;;;;;5039848;28;20237;-31
2022/07/06 05:44:47;;;;;;;4.37;3.53;;;16.60;99.90;;;;;;5042850;28;20209;-32
2022/07/06 05:50:13;;;;;;;3.90;3.43;;;16.70;99.90;;;;;;5050929;28;20185;-36
2022/07/06 05:52:57;;;;;;;5.10;3.10;;;16.80;99.90;;;;;;5040484;28;20177;-34
2022/07/06 05:55:23;;;;;;;3.93;3.20;;;16.90;99.90;;;;;;5016159;28;20231;-33
2022/07/06 05:57:50;;;;;;;6.10;3.20;;;16.90;99.90;;;;;;5056108;28;20298;-36
2022/07/06 06:00:17;;;;;;;3.90;3.50;;;17.10;99.90;;;;;;5048585;28;20253;-35
2022/07/06 06:02:47;;;;;;;4.40;3.53;;;17.20;99.90;;;;;;5037373;28;20182;-37
2022/07/06 06:05:16;;;;;;;5.27;3.50;;;17.30;99.90;;;;;;5042273;28;20213;-35
2022/07/06 06:07:44;;;;;;;5.53;3.73;;;17.50;99.90;;;;;;5034130;28;20181;-33
2022/07/06 06:10:12;;;;;;;5.00;3.50;;;17.60;99.90;;;;;;5032382;28;20260;-36
2022/07/06 06:12:39;;;;;;;5.37;3.47;;;17.80;99.90;;;;;;5031769;28;20170;-33
2022/07/06 06:15:06;;;;;;;4.97;3.85;;;17.90;99.90;;;;;;5037294;28;20228;-36
2022/07/06 06:17:33;;;;;;;8.10;3.25;;;18.10;99.90;;;;;;5050744;28;20178;-34
2022/07/06 06:19:59;;;;;;;4.22;3.55;;;18.30;99.90;;;;;;5058109;28;20185;-31
2022/07/06 06:22:25;;;;;;;9.23;3.55;;;18.50;99.90;;;;;;5042366;28;20197;-33
2022/07/06 06:24:51;;;;;;;5.45;3.60;;;18.60;99.90;;;;;;5050279;28;20205;-34
2022/07/06 06:27:18;;;;;;;5.53;3.55;;;18.70;99.90;;;;;;5043218;28;20189;-32
2022/07/06 06:29:44;;;;;;;3.38;3.08;;;18.90;99.90;;;;;;5040501;28;20182;-31
2022/07/06 06:32:13;;;;;;;6.55;3.70;;;19.10;99.90;;;;;;5056770;28;20181;-35
2022/07/06 06:34:40;;;;;;;5.57;3.40;;;19.10;99.90;;;;;;5039911;28;20202;-34
2022/07/06 06:37:06;;;;;;;3.83;3.50;;;19.10;99.90;;;;;;5055559;28;20182;-36
2022/07/06 06:39:32;;;;;;;5.90;3.40;;;19.30;99.90;;;;;;5039500;28;20182;-34
2022/07/06 06:41:58;;;;;;;4.03;3.53;;;19.40;99.90;;;;;;5037582;28;20202;-38
2022/07/06 06:44:32;;;;;;;4.18;3.55;;;19.50;99.90;;;;;;5050434;28;20205;-36
2022/07/06 06:46:58;;;;;;;5.38;3.55;;;19.40;99.90;;;;;;5058038;28;20178;-34
2022/07/06 06:49:24;;;;;;;4.68;3.60;;;19.60;99.90;;;;;;5054042;28;20189;-35
2022/07/06 06:51:50;;;;;;;3.55;2.85;;;19.50;99.90;;;;;;5043046;28;20178;-38
2022/07/06 06:54:16;;;;;;;4.82;3.08;;;19.60;99.90;;;;;;5059033;28;20217;-33
2022/07/06 06:56:42;;;;;;;3.35;3.05;;;19.60;99.90;;;;;;5038557;28;20182;-32
2022/07/06 06:59:08;;;;;;;4.57;3.42;;;19.80;99.90;;;;;;5052938;28;20189;-32
2022/07/06 07:01:33;;;;;;;5.10;3.38;;;20.00;99.90;;;;;;5033073;28;20188;-37
2022/07/06 07:03:59;;;;;;;3.65;3.30;;;20.20;99.90;;;;;;5038220;28;20308;-32
2022/07/06 07:06:25;;;;;;;3.85;3.10;;;20.30;99.90;;;;;;5050217;28;20192;-37
2022/07/06 07:08:51;;;;;;;4.68;3.47;;;20.30;99.90;;;;;;5053699;28;20269;-36
2022/07/06 07:11:18;;;;;;;4.50;3.40;;;20.50;99.90;;;;;;5047287;28;20182;-38
2022/07/06 07:13:44;;;;;;;4.93;3.10;;;20.70;99.90;;;;;;5057359;28;20190;-40
2022/07/06 07:16:11;;;;;;;5.38;3.58;;;20.80;99.90;;;;;;5047676;28;20184;-38
2022/07/06 07:18:37;;;;;;;5.30;2.90;;;20.90;99.90;;;;;;5053764;28;20178;-36
2022/07/06 07:21:05;;;;;;;4.85;3.50;;;21.10;99.90;;;;;;5053358;28;20206;-37
2022/07/06 07:23:31;;;;;;;3.55;2.95;;;21.20;99.90;;;;;;5058770;28;20347;-36
2022/07/06 07:25:57;;;;;;;5.75;2.78;;;21.30;99.90;;;;;;5039861;28;20200;-36
2022/07/06 07:28:23;;;;;;;3.22;2.33;;;21.50;99.90;;;;;;5035025;28;20204;-37
2022/07/06 07:30:48;;;;;;;5.57;2.25;;;21.60;99.90;;;;;;5066327;28;20178;-37
2022/07/06 07:33:17;;;;;;;3.50;2.42;;;21.80;99.90;;;;;;5048052;28;20295;-35
2022/07/06 07:35:46;;;;;;;3.92;2.80;;;21.70;99.90;;;;;;5064235;28;20232;-38
2022/07/06 07:38:12;;;;;;;4.30;3.08;;;21.80;99.90;;;;;;5057485;28;20647;-36
2022/07/06 07:40:39;;;;;;;2.63;2.28;;;21.70;99.90;;;;;;5059423;28;20176;-36
2022/07/06 07:43:05;;;;;;;6.75;2.78;;;21.80;99.90;;;;;;5058894;28;20181;-34
2022/07/06 07:45:31;;;;;;;3.95;2.80;;;21.80;99.90;;;;;;5040750;28;20291;-37
2022/07/06 07:47:57;;;;;;;5.07;2.85;;;21.70;99.90;;;;;;5041894;28;20233;-39
2022/07/06 07:50:26;;;;;;;5.93;2.72;;;21.80;99.90;;;;;;5039430;28;20213;-36
2022/07/06 07:52:53;;;;;;;3.88;2.88;;;21.90;99.90;;;;;;5057509;28;20200;-37
2022/07/06 07:55:19;;;;;;;5.95;2.70;;;22.10;99.90;;;;;;5037753;28;20225;-37
2022/07/06 07:57:45;;;;;;;4.80;2.42;;;22.20;99.90;;;;;;5065561;28;20697;-37
2022/07/06 08:00:13;;;;;;;2.75;2.30;;;22.00;99.90;;;;;;5050100;28;20191;-37
2022/07/06 08:02:41;;;;;;;4.10;2.70;;;22.20;99.90;;;;;;5036517;28;20216;-39
2022/07/06 08:05:07;;;;;;;3.22;2.30;;;22.40;99.90;;;;;;5034261;28;20210;-34
2022/07/06 08:07:33;;;;;;;3.47;3.00;;;22.50;99.90;;;;;;5055884;28;20239;-37
2022/07/06 08:09:59;;;;;;;3.90;2.85;;;22.60;99.90;;;;;;5051818;28;20179;-36
2022/07/06 08:12:27;;;;;;;6.03;2.47;;;22.80;99.90;;;;;;5048701;28;20245;-41
2022/07/06 08:14:53;;;;;;;3.67;2.65;;;22.90;99.90;;;;;;5047495;28;20209;-35
2022/07/06 08:17:18;;;;;;;3.10;2.55;;;23.10;99.90;;;;;;5048798;28;20189;-38
2022/07/06 08:19:44;;;;;;;6.00;2.58;;;23.30;99.90;;;;;;5048438;28;20268;-39
2022/07/06 08:22:10;;;;;;;5.53;2.80;;;23.30;99.90;;;;;;5038705;28;20181;-34
2022/07/06 08:24:36;;;;;;;5.32;2.95;;;23.50;99.90;;;;;;5051769;28;20217;-38
2022/07/06 08:27:03;;;;;;;4.18;2.65;;;23.60;99.90;;;;;;5037926;28;20214;-35
2022/07/06 08:29:31;;;;;;;4.25;2.67;;;23.60;99.90;;;;;;5048253;28;20293;-36
2022/07/06 08:31:57;;;;;;;4.85;2.30;;;23.80;99.90;;;;;;5059943;28;20206;-33
2022/07/06 08:34:23;;;;;;;5.43;2.88;;;24.00;99.90;;;;;;5051010;28;20198;-35
2022/07/06 08:36:49;;;;;;;3.70;2.38;;;24.00;99.90;;;;;;5051134;28;20192;-38
2022/07/06 08:39:15;;;;;;;6.50;2.63;;;24.10;99.90;;;;;;5041901;28;20201;-37
2022/07/06 08:41:42;;;;;;;3.08;2.65;;;24.30;99.90;;;;;;5037490;28;20186;-39
2022/07/06 08:44:09;;;;;;;4.80;2.90;;;24.50;99.90;;;;;;5047544;28;20213;-40
2022/07/06 08:46:38;;;;;;;5.30;2.60;;;24.60;99.90;;;;;;5037935;28;20190;-37
2022/07/06 08:49:06;;;;;;;4.22;2.70;;;24.80;99.90;;;;;;5052989;28;20178;-40
2022/07/06 08:51:35;;;;;;;3.45;2.50;;;24.70;99.90;;;;;;5034964;28;20174;-37
2022/07/06 08:54:02;;;;;;;3.67;2.60;;;24.90;99.90;;;;;;5047531;28;20209;-38
2022/07/06 08:56:29;;;;;;;2.70;2.50;;;24.90;99.90;;;;;;5036564;28;20190;-38
2022/07/06 08:58:55;;;;;;;4.18;2.28;;;25.00;99.90;;;;;;5030678;28;20194;-38
2022/07/06 09:01:22;;;;;;;5.00;2.35;;;25.10;99.90;;;;;;5038771;28;20661;-41
2022/07/06 09:03:49;;;;;;;6.22;3.00;;;25.30;99.90;;;;;;5040240;28;20221;-43
2022/07/06 09:06:26;;;;;;;2.63;2.30;;;25.30;99.90;;;;;;5038437;28;20265;-38
2022/07/06 09:08:56;;;;;;;4.50;2.00;;;25.30;99.90;;;;;;5046826;28;20178;-37
2022/07/06 09:11:23;;;;;;;4.57;2.72;;;25.50;99.90;;;;;;5053800;28;20239;-36
2022/07/06 09:13:51;;;;;;;3.85;2.53;;;25.60;99.90;;;;;;5036866;28;20190;-38
2022/07/06 09:16:17;;;;;;;3.22;2.38;;;25.60;99.90;;;;;;5053696;28;20189;-40
2022/07/06 09:18:47;;;;;;;3.25;2.53;;;25.50;99.90;;;;;;5036950;28;20190;-38
2022/07/06 09:21:30;;;;;;;4.03;2.35;;;25.40;99.90;;;;;;5037781;28;20189;-39
2022/07/06 09:23:58;;;;;;;4.75;2.72;;;25.40;99.90;;;;;;5053597;28;20205;-39
2022/07/06 09:26:24;;;;;;;3.25;2.25;;;25.10;99.90;;;;;;5055050;28;20190;-38
2022/07/06 09:28:51;;;;;;;3.08;2.22;;;25.40;99.90;;;;;;5038217;28;20181;-38
2022/07/06 09:31:16;;;;;;;2.38;2.17;;;25.30;99.90;;;;;;5054607;28;20662;-37
2022/07/06 09:33:59;;;;;;;4.75;2.65;;;25.40;99.90;;;;;;5035601;28;20170;-37
2022/07/06 09:36:46;;;;;;;4.97;2.42;;;25.30;99.90;;;;;;5047439;28;20213;-37
2022/07/06 09:39:25;;;;;;;3.70;2.20;;;25.50;99.90;;;;;;5038238;28;20209;-37
2022/07/06 09:41:55;;;;;;;2.78;2.20;;;25.50;99.90;;;;;;5037339;28;20261;-39
2022/07/06 09:44:32;;;;;;;3.28;2.17;;;25.70;99.70;;;;;;5053482;28;20859;-35
2022/07/06 09:47:00;;;;;;;3.65;1.92;;;25.60;99.80;;;;;;5053074;28;20272;-40
2022/07/06 09:49:27;;;;;;;2.40;1.90;;;25.80;99.90;;;;;;5036632;28;20260;-39
2022/07/06 09:51:58;;;;;;;3.00;2.28;;;26.10;99.60;;;;;;5041632;28;20181;-37
2022/07/06 09:54:24;;;;;;;2.47;2.28;;;26.50;99.90;;;;;;5037574;28;20209;-40
2022/07/06 09:56:51;;;;;;;2.65;1.90;;;26.20;98.70;;;;;;5057136;28;20183;-37
2022/07/06 09:59:29;;;;;;;4.20;2.20;;;26.30;98.90;;;;;;5056306;28;20192;-38
2022/07/06 10:01:57;;;;;;;3.42;2.90;;;26.20;98.40;;;;;;5038807;28;20300;-37
2022/07/06 10:04:25;;;;;;;3.67;2.20;;;26.40;98.90;;;;;;5039771;28;20239;-35
2022/07/06 10:06:52;;;;;;;2.47;2.28;;;26.40;98.00;;;;;;5050913;28;20213;-39
2022/07/06 10:09:20;;;;;;;5.55;2.20;;;26.40;98.20;;;;;;5056391;28;20220;-37
2022/07/06 10:11:55;;;;;;;2.05;1.85;;;26.60;98.90;;;;;;5056932;28;20178;-40
2022/07/06 10:14:29;;;;;;;2.55;2.28;;;26.80;99.30;;;;;;5057054;28;20210;-37
2022/07/06 10:17:03;;;;;;;3.13;2.13;;;26.80;98.20;;;;;;5051524;28;20178;-38
2022/07/06 10:19:31;;;;;;;3.03;1.98;;;26.90;97.50;;;;;;5050568;28;20193;-39
2022/07/06 10:22:00;;;;;;;2.10;1.95;;;26.90;97.10;;;;;;5051431;28;20182;-39
2022/07/06 10:24:28;;;;;;;2.42;1.88;;;26.70;97.80;;;;;;5049677;28;20216;-36
2022/07/06 10:26:55;;;;;;;3.20;1.92;;;26.50;98.10;;;;;;5040892;28;20240;-38
2022/07/06 10:29:21;;;;;;;4.05;2.00;;;26.60;97.70;;;;;;5040739;28;20186;-41
2022/07/06 10:31:48;;;;;;;2.28;2.08;;;26.60;98.00;;;;;;5024668;28;20263;-40
2022/07/06 10:34:16;;;;;;;5.05;1.98;;;26.40;98.00;;;;;;5050127;28;20202;-34
2022/07/06 10:36:44;;;;;;;4.68;2.20;;;26.00;97.80;;;;;;5039691;28;20213;-40
2022/07/06 10:41:56;;;;;;;5.55;1.90;;;25.50;97.60;;;;;;5052690;28;20267;-39
2022/07/06 10:44:24;;;;;;;2.22;2.03;;;25.60;98.90;;;;;;5051673;28;20220;-42
2022/07/06 10:46:55;;;;;;;4.15;2.35;;;25.80;98.50;;;;;;5018019;28;20204;-37
2022/07/06 10:49:22;;;;;;;3.72;2.17;;;25.60;99.20;;;;;;5018242;28;20174;-39
2022/07/06 10:51:49;;;;;;;3.28;1.92;;;25.70;99.00;;;;;;5018452;28;20174;-37
2022/07/06 10:54:16;;;;;;;3.00;2.10;;;25.90;99.60;;;;;;5034255;28;20277;-39
2022/07/06 10:56:45;;;;;;;4.28;2.25;;;26.20;98.30;;;;;;5018370;28;20198;-40
2022/07/06 10:59:23;;;;;;;3.45;2.00;;;26.10;97.70;;;;;;5034872;28;20335;-37
2022/07/06 11:02:11;;;;;;;2.17;1.90;;;26.30;98.20;;;;;;5051132;28;20181;-37
2022/07/06 11:04:38;;;;;;;4.60;2.00;;;26.70;97.30;;;;;;5034307;28;20213;-39
2022/07/06 11:07:18;;;;;;;2.50;2.28;;;26.90;96.70;;;;;;5052895;28;20269;-40
2022/07/06 11:09:58;;;;;;;5.20;2.20;;;26.70;99.00;;;;;;5040235;28;20646;-39
2022/07/06 11:12:24;;;;;;;4.35;1.90;;;26.50;97.90;;;;;;5014711;28;20194;-37
2022/07/06 11:14:52;;;;;;;2.63;2.10;;;26.70;98.50;;;;;;5046748;28;20198;-38
2022/07/06 11:17:18;;;;;;;5.43;2.05;;;26.90;98.60;;;;;;5039940;28;20185;-39
2022/07/06 11:20:07;;;;;;;24.60;21.48;;;26.80;97.40;;;;;;5018031;28;20173;-39
2022/07/06 11:22:37;;;;;;;5.30;4.57;;;26.80;97.10;;;;;;5052101;28;20189;-40
2022/07/06 11:25:04;;;;;;;3.60;3.30;;;26.50;97.80;;;;;;5071261;22;20229;-88
2022/07/06 11:27:30;;;;;;;6.80;4.85;;;26.10;97.20;;;;;;5038132;28;20174;-88
2022/07/06 11:29:57;;;;;;;3.30;2.53;;;25.90;97.40;;;;;;5053873;28;20189;-88
2022/07/06 11:32:26;;;;;;;31.38;28.88;;;25.80;98.30;;;;;;5041044;28;20185;-88
2022/07/06 11:35:21;;;;;;;6.47;5.47;;;25.90;98.60;;;;;;5052763;28;20177;-88
2022/07/06 11:37:48;;;;;;;5.32;2.30;;;25.70;98.10;;;;;;5034977;28;20189;-88
2022/07/06 11:40:23;;;;;;;2.38;2.17;;;25.50;98.90;;;;;;5038947;28;20197;-91
2022/07/06 11:42:54;;;;;;;3.78;2.25;;;25.50;99.30;;;;;;5037237;28;20169;-91
2022/07/06 11:45:27;;;;;;;29.77;27.08;;;25.60;98.40;;;;;;5054838;28;20231;-91
2022/07/06 11:48:09;;;;;;;4.68;2.95;;;25.80;98.10;;;;;;5035662;28;20181;-91
2022/07/06 11:50:35;;;;;;;4.78;3.28;;;25.70;99.40;;;;;;5053004;28;20207;-91
2022/07/06 11:53:01;;;;;;;2.50;2.30;;;25.40;99.90;;;;;;5040398;28;20197;-91
2022/07/06 11:55:29;;;;;;;4.70;2.08;;;25.80;99.90;;;;;;5038237;28;20185;-91
2022/07/06 11:57:59;;;;;;;3.05;2.10;;;26.10;99.60;;;;;;5055989;28;20249;-91
2022/07/06 12:00:25;;;;;;;3.88;2.08;;;26.30;99.50;;;;;;5048115;28;20194;-92
2022/07/06 12:03:01;;;;;;;4.18;2.10;;;26.40;99.80;;;;;;5038590;28;20179;-91
2022/07/06 12:05:31;;;;;;;2.53;2.08;;;26.60;99.90;;;;;;5036660;28;20209;-91
2022/07/06 12:08:08;;;;;;;5.10;2.25;;;26.90;99.50;;;;;;5040018;28;20181;-91
2022/07/06 12:10:37;;;;;;;4.38;2.33;;;27.10;99.80;;;;;;5044930;28;20194;-90
2022/07/06 12:13:04;;;;;;;3.72;2.50;;;26.50;98.20;;;;;;5036132;28;20181;-91
2022/07/06 12:15:30;;;;;;;2.40;2.20;;;26.20;97.90;;;;;;5040106;28;20185;-92
2022/07/06 12:17:56;;;;;;;3.63;2.13;;;26.40;98.10;;;;;;5039524;28;20221;-91
2022/07/06 12:20:24;;;;;;;2.80;2.38;;;26.50;99.60;;;;;;5039522;28;20228;-92
2022/07/06 12:23:03;;;;;;;4.20;2.53;;;26.60;99.20;;;;;;5039667;28;20173;-92
2022/07/06 12:25:34;;;;;;;2.97;2.33;;;26.50;99.90;;;;;;5039163;28;20205;-91
2022/07/06 12:28:00;;;;;;;2.90;2.13;;;26.90;99.40;;;;;;5039785;28;20173;-91
2022/07/06 12:30:26;;;;;;;4.20;2.47;;;26.90;99.10;;;;;;5039796;28;20216;-91
2022/07/06 12:33:17;;;;;;;4.03;2.60;;;26.90;99.20;;;;;;5039688;28;20199;-90
2022/07/06 12:35:43;;;;;;;5.07;2.42;;;26.50;99.10;;;;;;5040009;28;20177;-91
2022/07/06 12:38:09;;;;;;;2.67;2.15;;;26.70;99.70;;;;;;5039614;28;20336;-91
2022/07/06 12:40:38;;;;;;;2.58;2.30;;;26.80;99.90;;;;;;5039254;28;20231;-90
2022/07/06 12:43:05;;;;;;;3.00;2.70;;;26.80;99.60;;;;;;5039539;28;20180;-91
2022/07/06 12:45:31;;;;;;;3.38;2.60;;;26.30;99.20;;;;;;5039680;28;20201;-91
2022/07/06 12:48:01;;;;;;;3.35;2.42;;;26.20;99.00;;;;;;5039440;28;20173;-91
2022/07/06 12:50:38;;;;;;;5.22;2.60;;;25.70;99.90;;;;;;5039756;28;20257;-90
2022/07/06 12:53:16;;;;;;;5.55;2.20;;;25.70;99.90;;;;;;5039744;28;20177;-91
2022/07/06 12:55:42;;;;;;;5.70;2.53;;;26.00;99.90;;;;;;5039318;28;20165;-91